New Braunfels, TX

9:55 AM CDT on May 28, 2015 (GMT -0500)
San Antonio International | | Change Station
CLOSE
Current Station
Airport
Location: San Antonio,
Elevation: 794 ft
Nearby Weather Stations

Elev 794 ft 29.53 °N, 98.47 °W | Updated 4 minutes ago

Overcast
Overcast
79 °F
Feels Like 79 °F
N
10
Wind Variable Wind from SSE

Today
High -- | Low -- °F
--% Chance of Precip.
Yesterday
High -- | Low -- °F
Precip. -- in
6:33 AM 8:25 PM
Waxing Gibbous, 76% visible
Pressure 30.01 in
Visibility 6.0 miles
Clouds Mostly Cloudy 1400 ft
Overcast 6000 ft
Dew Point 75 °F
Humidity 88%
Rainfall 0.01 in
Snow Depth Not available.
UV 2 out of 12
Pollen 5.80 out of 12
Air Quality Not available.
Flu Activity Sporadic
METAR KSAT 281451Z 15009KT 6SM BR BKN014 OVC060 26/24 A3006 RMK AO2 RAB40E50 SLP161 P0000 60001 T02610239 52008

More Conditions Fewer Conditions

Pressure 30.01 in
Visibility 6.0 miles
Clouds Mostly Cloudy 1400 ft
Overcast 6000 ft
Dew Point 75 °F
Humidity 88%
Rainfall 0.01 in
Snow Depth Not available.
UV 2 out of 12
Pollen 5.80 out of 12
Air Quality Not available.
Flu Activity Sporadic
METAR KSAT 281451Z 15009KT 6SM BR BKN014 OVC060 26/24 A3006 RMK AO2 RAB40E50 SLP161 P0000 60001 T02610239 52008

More Conditions Fewer Conditions

Nowcast | as of 9:20 am CDT on May 28, 2015

Through noon...isolated showers will stream north across south- central Texas. Moderate to very brief heavy rainfall will be possible. Average rainfall amounts with these showers will be less than 1/10 of an inch...but a few locations could receive up to 1/4 of an inch in a quick heavy downpour.

×

10-Day Weather Forecast

Almanac

Astronomy

May. 28, 2015 Rise Set
Actual Time
Civil Twilight
Nautical Twilight
Astronomical Twilight
Moon
Length of Visible Light
Length of Day
Tomorrow will be .
, % of the Moon is Illuminated

Today's Extremes

State Highs State Lows

Community

WunderPhotos

Upload Photos

1,824,988 photos uploaded!

WunderBlogs® & News

Nearby

Air Quality

  Air Quality AQ Index Pollutant
Not available.

Snow Depth

Station Depth Elevation

Earthquake Activity

City Distance Mag. Time & Date
Minimum magnitude displayed is 2.5.

Coastal Water Temperatures

Place Temperature

Stations

Nearby Weather Stations

Station Location Temp. Windchill Dew Point Humidity Wind Precip. Elev Updated Type